Terminal Aerodrome Forecast
Issued by NWS

Home | Current Version | Previous Version | Text Only | Print | Product List | Glossary On
Versions: 1 2 3 4 5 6 7 8 9 10 11 12 13 14
000
FTAK31 PAFA 201726
TAFATA
TAF
PATA 201726Z 2018/2118 VRB04KT P6SM BKN050 BKN100 BKN150
     FM202000 VRB06KT P6SM VCTS BKN050CB BKN100 BKN150
     FM210600 VRB06KT P6SM VCSH BKN050 BKN100 BKN150=

USA.gov is the U.S. government's official web portal to all federal, state and local government web resources and services.